Cacilhas — VRUA8 — position and weather

sailwx.info

Track history (hours):
 
Tides and Currents Weather Stations Pressure Air Temp Water Temp Dewpoint Dewpoint Depression Visibility Wind Speed Wind Dir Waves Ship Positions

Cacilhas

Last reported at 2017-Nov-24 16:10 UTC. Time now 2017-Nov-25 00:20 UTC.
Position N 22°18' E 114°09'.

Length 29 m; draft 4.6 m.

Type: High speed craft. MMSI: 477092000.

Date/timePositionNaut miles runAvg speedWind from/ knotsBaromVisibWave heightAir tempDewpointWater temp
2017-Nov-24 16:10N 22°18' E 114°09'0 0.0
2017-Nov-24 13:09N 22°17' E 114°09'0 0.0
2017-Nov-24 10:13N 22°17' E 114°09'0 0.0
2017-Nov-24 03:38N 22°17' E 114°09'0 0.0
2017-Nov-23 17:05N 22°18' E 114°09'0 0.0
2017-Nov-23 13:42N 22°18' E 114°09'0 0.0
2017-Nov-23 10:39N 22°18' E 114°09'0 0.0
2017-Nov-23 07:37N 22°18' E 114°09'0 0.0
2017-Nov-23 04:07N 22°18' E 114°09'  
2017-Nov-20 00:23N 22°12' E 113°60'1540.2
2017-Nov-20 00:01N 22°11' E 113°44'918.3
2017-Nov-19 23:30N 22°12' E 113°34'0 0.4
2017-Nov-19 23:01N 22°12' E 113°34'2237.8
2017-Nov-19 22:26N 22°12' E 113°57'1 0.8
2017-Nov-19 20:49N 22°12' E 113°58'1340.1
2017-Nov-19 20:31N 22°11' E 113°45'1121.0
2017-Nov-19 20:00N 22°12' E 113°34'0 0.0
2017-Nov-19 19:30N 22°12' E 113°34'0 0.0
2017-Nov-19 19:00N 22°12' E 113°34'0 0.0
2017-Nov-19 18:30N 22°12' E 113°34'1734.4
2017-Nov-19 18:01N 22°12' E 113°52'6 4.4
2017-Nov-19 16:40N 22°12' E 113°59'742.0
2017-Nov-19 16:30N 22°11' E 113°51'1733.3
2017-Nov-19 16:00N 22°12' E 113°34'1 1.0
2017-Nov-19 15:31N 22°11' E 113°34'1938.4
2017-Nov-19 15:01N 22°12' E 113°55'4 2.8
2017-Nov-19 13:41N 22°12' E 113°59'741.1
2017-Nov-19 13:30N 22°11' E 113°51'1631.7
2017-Nov-19 13:00N 22°12' E 113°34'1 1.2
2017-Nov-19 12:30N 22°11' E 113°34'2140.5
2017-Nov-19 12:00N 22°12' E 113°56'1 0.4
2017-Nov-19 10:39N 22°12' E 113°56'639.9
2017-Nov-19 10:31N 22°11' E 113°50'1529.6
2017-Nov-19 10:00N 22°12' E 113°34'1 1.2
2017-Nov-19 09:30N 22°11' E 113°34'2413.7
2017-Nov-19 07:46N 22°12' E 113°60'1141.1
2017-Nov-19 07:30N 22°11' E 113°48'1326.9
2017-Nov-19 07:00N 22°12' E 113°34'0 0.0
2017-Nov-19 06:30N 22°12' E 113°34'0 0.0
2017-Nov-19 06:00N 22°12' E 113°34'0 0.0
2017-Nov-19 05:30N 22°12' E 113°34'0 0.0
2017-Nov-19 05:00N 22°12' E 113°34'0 0.0
2017-Nov-19 04:30N 22°12' E 113°34'2 3.6
2017-Nov-19 04:01N 22°11' E 113°35'2039.8
2017-Nov-19 03:30N 22°12' E 113°57'1 0.7
2017-Nov-19 02:18N 22°12' E 113°58'1138.7
2017-Nov-19 02:00N 22°11' E 113°46'1122.3
2017-Nov-19 01:30N 22°12' E 113°34'3 5.6
2017-Nov-19 01:01N 22°10' E 113°36'31 1.7
2017-Nov-18 07:16N 22°18' E 114°09'7 7.5
2017-Nov-18 06:22N 22°14' E 114°03'1437.1
2017-Nov-18 06:00N 22°11' E 113°48'1427.4
2017-Nov-18 05:30N 22°12' E 113°34'0 0.0
2017-Nov-18 05:00N 22°12' E 113°34'0 0.0
2017-Nov-18 04:30N 22°12' E 113°34'0 0.0
2017-Nov-18 04:00N 22°12' E 113°34'0 0.0
2017-Nov-18 03:30N 22°12' E 113°34'0 0.0
2017-Nov-18 03:00N 22°12' E 113°34'1 1.6
2017-Nov-18 02:30N 22°11' E 113°34'1 1.6
2017-Nov-18 02:00N 22°12' E 113°34'4 8.9
2017-Nov-18 01:31N 22°11' E 113°38'2938.5
2017-Nov-18 00:45N 22°18' E 114°09'7 7.6
2017-Nov-17 23:50N 22°14' E 114°03'1339.6
2017-Nov-17 23:31N 22°11' E 113°49'1529.2
2017-Nov-17 23:00N 22°12' E 113°34'0 0.0
2017-Nov-17 22:30N 22°12' E 113°34'0 0.0
2017-Nov-17 22:00N 22°12' E 113°34'0 0.0
2017-Nov-17 21:30N 22°12' E 113°34'0 0.0
2017-Nov-17 21:00N 22°12' E 113°34'0 0.0
2017-Nov-17 20:30N 22°12' E 113°34'0 0.0
2017-Nov-17 20:00N 22°12' E 113°34'0 0.0
2017-Nov-17 19:30N 22°12' E 113°34'0 0.0
2017-Nov-17 19:00N 22°12' E 113°34'0 0.0
2017-Nov-17 18:30N 22°12' E 113°34'0 0.8
2017-Nov-17 18:01N 22°11' E 113°34'1937.9
2017-Nov-17 17:30N 22°12' E 113°54'15 9.9
2017-Nov-17 16:02N 22°18' E 114°09'0 5.7
2017-Nov-17 15:59N 22°17' E 114°09'0 0.1
2017-Nov-17 14:06N 22°18' E 114°09'14 9.5
2017-Nov-17 12:39N 22°12' E 113°55'640.0
2017-Nov-17 12:29N 22°11' E 113°48'1428.8
2017-Nov-17 12:01N 22°12' E 113°34'3 6.1
2017-Nov-17 11:31N 22°11' E 113°37'3137.4
2017-Nov-17 10:41N 22°17' E 114°09'910.0
2017-Nov-17 09:45N 22°13' E 114°00'1041.4
2017-Nov-17 09:31N 22°11' E 113°50'1530.4
2017-Nov-17 09:00N 22°12' E 113°34'4 7.4
2017-Nov-17 08:30N 22°11' E 113°37'2141.1
2017-Nov-17 08:00N 22°13' E 113°60'1 1.0
2017-Nov-17 06:53N 22°13' E 114°01'1540.3
2017-Nov-17 06:30N 22°11' E 113°45'1121.1
2017-Nov-17 06:00N 22°12' E 113°34'0 0.0
2017-Nov-17 05:30N 22°12' E 113°34'3 6.2
2017-Nov-17 05:01N 22°11' E 113°37'2140.4
2017-Nov-17 04:30N 22°13' E 113°59'3 2.8
2017-Nov-17 03:22N 22°14' E 114°02'1439.1
2017-Nov-17 03:01N 22°11' E 113°47'1224.7
2017-Nov-17 02:30N 22°12' E 113°34'1 2.6
2017-Nov-17 02:01N 22°11' E 113°35'2039.0
2017-Nov-17 01:30N 22°12' E 113°56'1 0.9
2017-Nov-17 00:11N 22°12' E 113°57'740.2
2017-Nov-17 00:01N 22°11' E 113°49'1528.9
2017-Nov-16 23:30N 22°12' E 113°34'0 0.0
2017-Nov-16 23:00N 22°12' E 113°34'0 0.0
2017-Nov-16 22:30N 22°12' E 113°34'0 0.0
2017-Nov-16 22:00N 22°12' E 113°34'0 0.0
2017-Nov-16 21:30N 22°12' E 113°34'0 0.0
2017-Nov-16 21:00N 22°12' E 113°34'0 0.0
2017-Nov-16 20:30N 22°12' E 113°34'0 0.0
2017-Nov-16 20:00N 22°12' E 113°34'0 0.8
2017-Nov-16 19:31N 22°11' E 113°34'1937.5
2017-Nov-16 19:00N 22°12' E 113°54'2 0.7
2017-Nov-16 16:08N 22°12' E 113°56'542.1
2017-Nov-16 16:00N 22°11' E 113°51'1631.4
2017-Nov-16 15:31N 22°12' E 113°34'0 0.0
2017-Nov-16 15:01N 22°12' E 113°34'1 1.1
2017-Nov-16 14:31N 22°11' E 113°34'16 8.1
2017-Nov-16 12:34N 22°11' E 113°51'238.1
2017-Nov-16 12:31N 22°11' E 113°49'1426.1
2017-Nov-16 11:58N 22°12' E 113°34'3 6.3
2017-Nov-16 11:30N 22°11' E 113°36'3138.4
2017-Nov-16 10:42N 22°18' E 114°09'7 5.2
2017-Nov-16 09:22N 22°14' E 114°03'1337.0
2017-Nov-16 09:01N 22°11' E 113°49'1428.3
2017-Nov-16 08:30N 22°12' E 113°34'0 0.9
2017-Nov-16 08:01N 22°11' E 113°34'2140.7
2017-Nov-16 07:30N 22°12' E 113°56'1319.0
2017-Nov-16 06:49N 22°17' E 114°09'917.7
2017-Nov-16 06:19N 22°13' E 114°01'1340.4
2017-Nov-16 06:01N 22°11' E 113°48'1325.8
2017-Nov-16 05:30N 22°12' E 113°34'0 0.0
2017-Nov-16 05:00N 22°12' E 113°34'1 2.2
2017-Nov-16 04:31N 22°11' E 113°34'2039.1
2017-Nov-16 04:00N 22°12' E 113°56'6 5.1
2017-Nov-16 02:48N 22°14' E 114°02'1240.6
2017-Nov-16 02:31N 22°11' E 113°50'1529.6
2017-Nov-16 02:00N 22°12' E 113°34'1 2.7
2017-Nov-16 01:31N 22°11' E 113°35'2140.5
2017-Nov-16 01:00N 22°12' E 113°57'5 4.8
2017-Nov-15 23:51N 22°14' E 114°03'1439.8
2017-Nov-15 23:31N 22°11' E 113°48'1427.2
2017-Nov-15 23:00N 22°12' E 113°34'0 0.0
2017-Nov-15 22:31N 22°12' E 113°34'0 0.0
2017-Nov-15 22:01N 22°12' E 113°34'0 0.0
2017-Nov-15 21:30N 22°12' E 113°34'0 0.0
2017-Nov-15 21:01N 22°12' E 113°34'0 0.0
2017-Nov-15 20:30N 22°12' E 113°34'0 0.0
2017-Nov-15 20:00N 22°12' E 113°34'0 0.0
2017-Nov-15 19:30N 22°12' E 113°34'0 0.0
2017-Nov-15 19:00N 22°12' E 113°34'0 0.0
2017-Nov-15 18:30N 22°12' E 113°34'1735.0
2017-Nov-15 18:01N 22°12' E 113°52'7 5.3
2017-Nov-15 16:42N 22°12' E 113°60'841.3
2017-Nov-15 16:30N 22°11' E 113°51'1632.6
2017-Nov-15 16:00N 22°12' E 113°34'1 2.7
2017-Nov-15 15:31N 22°11' E 113°35'3238.7
2017-Nov-15 14:40N 22°18' E 114°09'1010.2
2017-Nov-15 13:41N 22°12' E 113°60'844.3
2017-Nov-15 13:30N 22°11' E 113°51'1632.4
2017-Nov-15 13:00N 22°12' E 113°34'0 0.2
2017-Nov-15 12:31N 22°12' E 113°34'1938.4
2017-Nov-15 12:01N 22°12' E 113°54'2 1.8
2017-Nov-15 10:41N 22°12' E 113°57'742.1
2017-Nov-15 10:30N 22°11' E 113°49'1428.6
2017-Nov-15 10:00N 22°12' E 113°34'0 0.0
2017-Nov-15 09:30N 22°12' E 113°34'0 0.0
2017-Nov-15 09:00N 22°12' E 113°34'0 0.0
2017-Nov-15 08:30N 22°12' E 113°34'0 0.0
2017-Nov-15 08:00N 22°12' E 113°34'0 0.0
2017-Nov-15 07:30N 22°12' E 113°34'0 0.0
2017-Nov-15 07:00N 22°12' E 113°34'1 2.2
2017-Nov-15 06:31N 22°11' E 113°34'2040.4
2017-Nov-15 06:01N 22°12' E 113°56'3 2.0
2017-Nov-15 04:16N 22°12' E 113°60'1141.3
2017-Nov-15 04:01N 22°11' E 113°48'1427.0
2017-Nov-15 03:30N 22°12' E 113°34'1 1.2
2017-Nov-15 03:01N 22°11' E 113°34'2039.9
2017-Nov-15 02:30N 22°12' E 113°56'7 5.8
2017-Nov-15 01:21N 22°14' E 114°03'1440.7
2017-Nov-15 01:00N 22°11' E 113°48'1427.3
2017-Nov-15 00:31N 22°12' E 113°34'1 2.7
2017-Nov-15 00:01N 22°11' E 113°35'2141.1
2017-Nov-14 23:30N 22°12' E 113°57'3 0.7
2017-Nov-14 19:16N 22°13' E 114°01'1140.9
2017-Nov-14 19:01N 22°11' E 113°49'1428.9
2017-Nov-14 18:30N 22°12' E 113°34'0 0.0
2017-Nov-14 18:00N 22°12' E 113°34'1733.6
2017-Nov-14 17:30N 22°12' E 113°52'8 6.0
2017-Nov-14 16:15N 22°12' E 113°60'  
Track history (hours):
 
Tides and Currents Weather Stations Pressure Air Temp Water Temp Dewpoint Dewpoint Depression Visibility Wind Speed Wind Dir Waves Ship Positions

Cacilhas

Last reported at 2017-Nov-24 16:10 UTC. Time now 2017-Nov-25 00:20 UTC.
Position N 22°18' E 114°09'.

Length 29 m; draft 4.6 m.

Type: High speed craft. MMSI: 477092000.

Date/timePositionNaut miles runAvg speedWind from/ knotsBaromVisibWave heightAir tempDewpointWater temp
2017-Nov-24 16:10N 22°18' E 114°09'0 0.0
2017-Nov-24 13:09N 22°17' E 114°09'0 0.0
2017-Nov-24 10:13N 22°17' E 114°09'0 0.0
2017-Nov-24 03:38N 22°17' E 114°09'0 0.0
2017-Nov-23 17:05N 22°18' E 114°09'0 0.0
2017-Nov-23 13:42N 22°18' E 114°09'0 0.0
2017-Nov-23 10:39N 22°18' E 114°09'0 0.0
2017-Nov-23 07:37N 22°18' E 114°09'0 0.0
2017-Nov-23 04:07N 22°18' E 114°09'  
2017-Nov-20 00:23N 22°12' E 113°60'1540.2
2017-Nov-20 00:01N 22°11' E 113°44'918.3
2017-Nov-19 23:30N 22°12' E 113°34'0 0.4
2017-Nov-19 23:01N 22°12' E 113°34'2237.8
2017-Nov-19 22:26N 22°12' E 113°57'1 0.8
2017-Nov-19 20:49N 22°12' E 113°58'1340.1
2017-Nov-19 20:31N 22°11' E 113°45'1121.0
2017-Nov-19 20:00N 22°12' E 113°34'0 0.0
2017-Nov-19 19:30N 22°12' E 113°34'0 0.0
2017-Nov-19 19:00N 22°12' E 113°34'0 0.0
2017-Nov-19 18:30N 22°12' E 113°34'1734.4
2017-Nov-19 18:01N 22°12' E 113°52'6 4.4
2017-Nov-19 16:40N 22°12' E 113°59'742.0
2017-Nov-19 16:30N 22°11' E 113°51'1733.3
2017-Nov-19 16:00N 22°12' E 113°34'1 1.0
2017-Nov-19 15:31N 22°11' E 113°34'1938.4
2017-Nov-19 15:01N 22°12' E 113°55'4 2.8
2017-Nov-19 13:41N 22°12' E 113°59'741.1
2017-Nov-19 13:30N 22°11' E 113°51'1631.7
2017-Nov-19 13:00N 22°12' E 113°34'1 1.2
2017-Nov-19 12:30N 22°11' E 113°34'2140.5
2017-Nov-19 12:00N 22°12' E 113°56'1 0.4
2017-Nov-19 10:39N 22°12' E 113°56'639.9
2017-Nov-19 10:31N 22°11' E 113°50'1529.6
2017-Nov-19 10:00N 22°12' E 113°34'1 1.2
2017-Nov-19 09:30N 22°11' E 113°34'2413.7
2017-Nov-19 07:46N 22°12' E 113°60'1141.1
2017-Nov-19 07:30N 22°11' E 113°48'1326.9
2017-Nov-19 07:00N 22°12' E 113°34'0 0.0
2017-Nov-19 06:30N 22°12' E 113°34'0 0.0
2017-Nov-19 06:00N 22°12' E 113°34'0 0.0
2017-Nov-19 05:30N 22°12' E 113°34'0 0.0
2017-Nov-19 05:00N 22°12' E 113°34'0 0.0
2017-Nov-19 04:30N 22°12' E 113°34'2 3.6
2017-Nov-19 04:01N 22°11' E 113°35'2039.8
2017-Nov-19 03:30N 22°12' E 113°57'1 0.7
2017-Nov-19 02:18N 22°12' E 113°58'1138.7
2017-Nov-19 02:00N 22°11' E 113°46'1122.3
2017-Nov-19 01:30N 22°12' E 113°34'3 5.6
2017-Nov-19 01:01N 22°10' E 113°36'31 1.7
2017-Nov-18 07:16N 22°18' E 114°09'7 7.5
2017-Nov-18 06:22N 22°14' E 114°03'1437.1
2017-Nov-18 06:00N 22°11' E 113°48'1427.4
2017-Nov-18 05:30N 22°12' E 113°34'0 0.0
2017-Nov-18 05:00N 22°12' E 113°34'0 0.0
2017-Nov-18 04:30N 22°12' E 113°34'0 0.0
2017-Nov-18 04:00N 22°12' E 113°34'0 0.0
2017-Nov-18 03:30N 22°12' E 113°34'0 0.0
2017-Nov-18 03:00N 22°12' E 113°34'1 1.6
2017-Nov-18 02:30N 22°11' E 113°34'1 1.6
2017-Nov-18 02:00N 22°12' E 113°34'4 8.9
2017-Nov-18 01:31N 22°11' E 113°38'2938.5
2017-Nov-18 00:45N 22°18' E 114°09'7 7.6
2017-Nov-17 23:50N 22°14' E 114°03'1339.6
2017-Nov-17 23:31N 22°11' E 113°49'1529.2
2017-Nov-17 23:00N 22°12' E 113°34'0 0.0
2017-Nov-17 22:30N 22°12' E 113°34'0 0.0
2017-Nov-17 22:00N 22°12' E 113°34'0 0.0
2017-Nov-17 21:30N 22°12' E 113°34'0 0.0
2017-Nov-17 21:00N 22°12' E 113°34'0 0.0
2017-Nov-17 20:30N 22°12' E 113°34'0 0.0
2017-Nov-17 20:00N 22°12' E 113°34'0 0.0
2017-Nov-17 19:30N 22°12' E 113°34'0 0.0
2017-Nov-17 19:00N 22°12' E 113°34'0 0.0
2017-Nov-17 18:30N 22°12' E 113°34'0 0.8
2017-Nov-17 18:01N 22°11' E 113°34'1937.9
2017-Nov-17 17:30N 22°12' E 113°54'15 9.9
2017-Nov-17 16:02N 22°18' E 114°09'0 5.7
2017-Nov-17 15:59N 22°17' E 114°09'0 0.1
2017-Nov-17 14:06N 22°18' E 114°09'14 9.5
2017-Nov-17 12:39N 22°12' E 113°55'640.0
2017-Nov-17 12:29N 22°11' E 113°48'1428.8
2017-Nov-17 12:01N 22°12' E 113°34'3 6.1
2017-Nov-17 11:31N 22°11' E 113°37'3137.4
2017-Nov-17 10:41N 22°17' E 114°09'910.0
2017-Nov-17 09:45N 22°13' E 114°00'1041.4
2017-Nov-17 09:31N 22°11' E 113°50'1530.4
2017-Nov-17 09:00N 22°12' E 113°34'4 7.4
2017-Nov-17 08:30N 22°11' E 113°37'2141.1
2017-Nov-17 08:00N 22°13' E 113°60'1 1.0
2017-Nov-17 06:53N 22°13' E 114°01'1540.3
2017-Nov-17 06:30N 22°11' E 113°45'1121.1
2017-Nov-17 06:00N 22°12' E 113°34'0 0.0
2017-Nov-17 05:30N 22°12' E 113°34'3 6.2
2017-Nov-17 05:01N 22°11' E 113°37'2140.4
2017-Nov-17 04:30N 22°13' E 113°59'3 2.8
2017-Nov-17 03:22N 22°14' E 114°02'1439.1
2017-Nov-17 03:01N 22°11' E 113°47'1224.7
2017-Nov-17 02:30N 22°12' E 113°34'1 2.6
2017-Nov-17 02:01N 22°11' E 113°35'2039.0
2017-Nov-17 01:30N 22°12' E 113°56'1 0.9
2017-Nov-17 00:11N 22°12' E 113°57'740.2
2017-Nov-17 00:01N 22°11' E 113°49'1528.9
2017-Nov-16 23:30N 22°12' E 113°34'0 0.0
2017-Nov-16 23:00N 22°12' E 113°34'0 0.0
2017-Nov-16 22:30N 22°12' E 113°34'0 0.0
2017-Nov-16 22:00N 22°12' E 113°34'0 0.0
2017-Nov-16 21:30N 22°12' E 113°34'0 0.0
2017-Nov-16 21:00N 22°12' E 113°34'0 0.0
2017-Nov-16 20:30N 22°12' E 113°34'0 0.0
2017-Nov-16 20:00N 22°12' E 113°34'0 0.8
2017-Nov-16 19:31N 22°11' E 113°34'1937.5
2017-Nov-16 19:00N 22°12' E 113°54'2 0.7
2017-Nov-16 16:08N 22°12' E 113°56'542.1
2017-Nov-16 16:00N 22°11' E 113°51'1631.4
2017-Nov-16 15:31N 22°12' E 113°34'0 0.0
2017-Nov-16 15:01N 22°12' E 113°34'1 1.1
2017-Nov-16 14:31N 22°11' E 113°34'16 8.1
2017-Nov-16 12:34N 22°11' E 113°51'238.1
2017-Nov-16 12:31N 22°11' E 113°49'1426.1
2017-Nov-16 11:58N 22°12' E 113°34'3 6.3
2017-Nov-16 11:30N 22°11' E 113°36'3138.4
2017-Nov-16 10:42N 22°18' E 114°09'7 5.2
2017-Nov-16 09:22N 22°14' E 114°03'1337.0
2017-Nov-16 09:01N 22°11' E 113°49'1428.3
2017-Nov-16 08:30N 22°12' E 113°34'0 0.9
2017-Nov-16 08:01N 22°11' E 113°34'2140.7
2017-Nov-16 07:30N 22°12' E 113°56'1319.0
2017-Nov-16 06:49N 22°17' E 114°09'917.7
2017-Nov-16 06:19N 22°13' E 114°01'1340.4
2017-Nov-16 06:01N 22°11' E 113°48'1325.8
2017-Nov-16 05:30N 22°12' E 113°34'0 0.0
2017-Nov-16 05:00N 22°12' E 113°34'1 2.2
2017-Nov-16 04:31N 22°11' E 113°34'2039.1
2017-Nov-16 04:00N 22°12' E 113°56'6 5.1
2017-Nov-16 02:48N 22°14' E 114°02'1240.6
2017-Nov-16 02:31N 22°11' E 113°50'1529.6
2017-Nov-16 02:00N 22°12' E 113°34'1 2.7
2017-Nov-16 01:31N 22°11' E 113°35'2140.5
2017-Nov-16 01:00N 22°12' E 113°57'5 4.8
2017-Nov-15 23:51N 22°14' E 114°03'1439.8
2017-Nov-15 23:31N 22°11' E 113°48'1427.2
2017-Nov-15 23:00N 22°12' E 113°34'0 0.0
2017-Nov-15 22:31N 22°12' E 113°34'0 0.0
2017-Nov-15 22:01N 22°12' E 113°34'0 0.0
2017-Nov-15 21:30N 22°12' E 113°34'0 0.0
2017-Nov-15 21:01N 22°12' E 113°34'0 0.0
2017-Nov-15 20:30N 22°12' E 113°34'0 0.0
2017-Nov-15 20:00N 22°12' E 113°34'0 0.0
2017-Nov-15 19:30N 22°12' E 113°34'0 0.0
2017-Nov-15 19:00N 22°12' E 113°34'0 0.0
2017-Nov-15 18:30N 22°12' E 113°34'1735.0
2017-Nov-15 18:01N 22°12' E 113°52'7 5.3
2017-Nov-15 16:42N 22°12' E 113°60'841.3
2017-Nov-15 16:30N 22°11' E 113°51'1632.6
2017-Nov-15 16:00N 22°12' E 113°34'1 2.7
2017-Nov-15 15:31N 22°11' E 113°35'3238.7
2017-Nov-15 14:40N 22°18' E 114°09'1010.2
2017-Nov-15 13:41N 22°12' E 113°60'844.3
2017-Nov-15 13:30N 22°11' E 113°51'1632.4
2017-Nov-15 13:00N 22°12' E 113°34'0 0.2
2017-Nov-15 12:31N 22°12' E 113°34'1938.4
2017-Nov-15 12:01N 22°12' E 113°54'2 1.8
2017-Nov-15 10:41N 22°12' E 113°57'742.1
2017-Nov-15 10:30N 22°11' E 113°49'1428.6
2017-Nov-15 10:00N 22°12' E 113°34'0 0.0
2017-Nov-15 09:30N 22°12' E 113°34'0 0.0
2017-Nov-15 09:00N 22°12' E 113°34'0 0.0
2017-Nov-15 08:30N 22°12' E 113°34'0 0.0
2017-Nov-15 08:00N 22°12' E 113°34'0 0.0
2017-Nov-15 07:30N 22°12' E 113°34'0 0.0
2017-Nov-15 07:00N 22°12' E 113°34'1 2.2
2017-Nov-15 06:31N 22°11' E 113°34'2040.4
2017-Nov-15 06:01N 22°12' E 113°56'3 2.0
2017-Nov-15 04:16N 22°12' E 113°60'1141.3
2017-Nov-15 04:01N 22°11' E 113°48'1427.0
2017-Nov-15 03:30N 22°12' E 113°34'1 1.2
2017-Nov-15 03:01N 22°11' E 113°34'2039.9
2017-Nov-15 02:30N 22°12' E 113°56'7 5.8
2017-Nov-15 01:21N 22°14' E 114°03'1440.7
2017-Nov-15 01:00N 22°11' E 113°48'1427.3
2017-Nov-15 00:31N 22°12' E 113°34'1 2.7
2017-Nov-15 00:01N 22°11' E 113°35'2141.1
2017-Nov-14 23:30N 22°12' E 113°57'3 0.7
2017-Nov-14 19:16N 22°13' E 114°01'1140.9
2017-Nov-14 19:01N 22°11' E 113°49'1428.9
2017-Nov-14 18:30N 22°12' E 113°34'0 0.0
2017-Nov-14 18:00N 22°12' E 113°34'1733.6
2017-Nov-14 17:30N 22°12' E 113°52'8 6.0
2017-Nov-14 16:15N 22°12' E 113°60'  

Dump ship's entire track history